Time,TemperatureF,DewpointF,PressureIn,WindDirection,WindDirectionDegrees,WindSpeedMPH,WindSpeedGustMPH,Humidity,HourlyPrecipIn,Conditions,Clouds,dailyrainin,SoftwareType,DateUTC
2013-11-03 00:00:00,46.8,40.6,29.89,ENE,57,3.0,3.0,79,0.00,BKN,BKN,0.00,WeatherDisplay:10.34,2013-11-03 04:00:00,
2013-11-03 00:01:00,46.6,40.4,29.89,NE,45,0.0,5.0,79,0.00,BKN,BKN,0.00,WeatherDisplay:10.34,2013-11-03 04:01:00,
2013-11-03 00:02:00,46.6,40.4,29.89,NNE,24,4.0,6.0,79,0.00,BKN,BKN,0.00,WeatherDisplay:10.34,2013-11-03 04:02:00,
2013-11-03 00:03:00,46.6,40.4,29.89,North,5,4.0,6.0,79,0.00,BKN,BKN,0.00,WeatherDisplay:10.34,2013-11-03 04:03:00,
2013-11-03 00:04:00,46.6,40.4,29.89,NE,50,5.0,6.0,79,0.00,BKN,BKN,0.00,WeatherDisplay:10.34,2013-11-03 04:04:00,
2013-11-03 00:09:00,46.2,39.7,29.89,NNE,31,3.0,3.0,78,0.00,BKN,BKN,0.00,WeatherDisplay:10.34,2013-11-03 04:09:00,
2013-11-03 00:14:00,45.7,38.5,29.92,NNW,338,4.0,5.0,76,0.00,BKN,BKN,0.00,WeatherDisplay:10.34,2013-11-03 04:14:00,
2013-11-03 00:16:00,45.5,38.4,29.92,North,4,3.0,6.0,76,0.00,BKN,BKN,0.00,WeatherDisplay:10.34,2013-11-03 04:16:00,
2013-11-03 00:21:00,45.0,37.8,29.92,NE,46,3.0,5.0,76,0.00,BKN,BKN,0.00,WeatherDisplay:10.34,2013-11-03 04:21:00,
2013-11-03 00:26:00,44.8,37.3,29.92,East,86,4.0,6.0,75,0.00,BKN,BKN,0.00,WeatherDisplay:10.34,2013-11-03 04:26:00,
2013-11-03 00:31:00,44.8,37.7,29.92,ENE,66,3.0,5.0,76,0.00,BKN,BKN,0.00,WeatherDisplay:10.34,2013-11-03 04:31:00,
2013-11-03 00:36:00,44.6,37.2,29.92,NE,51,4.0,6.0,75,0.00,BKN,BKN,0.00,WeatherDisplay:10.34,2013-11-03 04:36:00,
2013-11-03 00:41:00,44.2,36.5,29.92,NE,48,3.0,3.0,74,0.00,BKN,BKN,0.00,WeatherDisplay:10.34,2013-11-03 04:41:00,
2013-11-03 00:46:00,43.7,35.6,29.92,ENE,70,4.0,6.0,73,0.00,BKN,BKN,0.00,WeatherDisplay:10.34,2013-11-03 04:46:00,
2013-11-03 00:51:00,43.7,35.6,29.92,North,10,4.0,7.0,73,0.00,BKN,BKN,0.00,WeatherDisplay:10.34,2013-11-03 04:51:00,
2013-11-03 00:56:00,43.5,35.1,29.92,NNE,23,3.0,6.0,72,0.00,BKN,BKN,0.00,WeatherDisplay:10.34,2013-11-03 04:56:00,
2013-11-03 01:01:00,43.5,34.7,29.92,NNE,22,3.0,6.0,71,0.00,BKN,BKN,0.00,WeatherDisplay:10.34,2013-11-03 05:01:00,
2013-11-03 01:06:00,43.3,34.6,29.92,NE,45,4.0,5.0,71,0.00,BKN,BKN,0.00,WeatherDisplay:10.34,2013-11-03 05:06:00,
2013-11-03 01:11:00,43.2,34.0,29.92,NNE,16,4.0,6.0,70,0.00,BKN,BKN,0.00,WeatherDisplay:10.34,2013-11-03 05:11:00,
2013-11-03 01:16:00,43.0,34.2,29.95,NE,55,4.0,5.0,71,0.00,BKN,BKN,0.00,WeatherDisplay:10.34,2013-11-03 05:16:00,
2013-11-03 01:21:00,42.8,33.7,29.95,NNE,25,3.0,3.0,70,0.00,BKN,BKN,0.00,WeatherDisplay:10.34,2013-11-03 05:21:00,
2013-11-03 01:26:00,42.4,33.0,29.95,ENE,65,4.0,4.0,69,0.00,BKN,BKN,0.00,WeatherDisplay:10.34,2013-11-03 05:26:00,
2013-11-03 01:31:00,42.4,33.0,29.95,NE,36,3.0,3.0,69,0.00,BKN,BKN,0.00,WeatherDisplay:10.34,2013-11-03 05:31:00,
2013-11-03 01:36:00,42.3,32.8,29.95,ENE,71,3.0,3.0,69,0.00,BKN,BKN,0.00,WeatherDisplay:10.34,2013-11-03 05:36:00,
2013-11-03 01:41:00,41.9,32.5,29.95,ENE,65,3.0,3.0,69,0.00,BKN,BKN,0.00,WeatherDisplay:10.34,2013-11-03 05:41:00,
2013-11-03 01:46:00,41.7,32.7,29.95,ENE,72,3.0,5.0,70,0.00,BKN,BKN,0.00,WeatherDisplay:10.34,2013-11-03 05:46:00,
2013-11-03 01:51:00,41.7,33.0,29.95,SSE,157,3.0,3.0,71,0.00,BKN,BKN,0.00,WeatherDisplay:10.34,2013-11-03 05:51:00,
2013-11-03 01:56:00,41.7,33.0,29.95,NE,54,3.0,3.0,71,0.00,BKN,BKN,0.00,WeatherDisplay:10.34,2013-11-03 05:56:00,
2013-11-03 01:01:00,41.7,32.3,29.95,ENE,59,4.0,5.0,69,0.00,BKN,BKN,0.00,WeatherDisplay:10.34,2013-11-03 06:01:00,
2013-11-03 01:06:00,41.5,31.8,29.95,NE,50,0.0,2.0,68,0.00,OVC,OVC,0.00,WeatherDisplay:10.34,2013-11-03 06:06:00,
2013-11-03 01:11:00,41.5,31.4,29.95,ESE,106,4.0,6.0,67,0.00,OVC,OVC,0.00,WeatherDisplay:10.34,2013-11-03 06:11:00,
2013-11-03 01:16:00,41.7,31.9,29.98,East,92,0.0,0.0,68,0.00,OVC,OVC,0.00,WeatherDisplay:10.34,2013-11-03 06:16:00,
2013-11-03 01:21:00,41.5,31.4,29.98,East,89,0.0,2.0,67,0.00,OVC,OVC,0.00,WeatherDisplay:10.34,2013-11-03 06:21:00,
2013-11-03 01:26:00,41.5,31.4,29.98,East,81,3.0,3.0,67,0.00,OVC,OVC,0.00,WeatherDisplay:10.34,2013-11-03 06:26:00,
2013-11-03 01:31:00,41.4,31.2,29.98,East,81,0.0,0.0,67,0.00,OVC,OVC,0.00,WeatherDisplay:10.34,2013-11-03 06:31:00,
2013-11-03 01:36:00,41.4,31.6,29.98,East,81,3.0,3.0,68,0.00,OVC,OVC,0.00,WeatherDisplay:10.34,2013-11-03 06:36:00,
2013-11-03 01:41:00,41.2,31.4,29.98,East,84,3.0,3.0,68,0.00,OVC,OVC,0.00,WeatherDisplay:10.34,2013-11-03 06:41:00,
2013-11-03 01:46:00,41.2,31.4,29.98,East,84,3.0,3.0,68,0.00,OVC,OVC,0.00,WeatherDisplay:10.34,2013-11-03 06:46:00,
2013-11-03 01:51:00,41.0,31.6,29.98,ESE,103,0.0,3.0,69,0.00,OVC,OVC,0.00,WeatherDisplay:10.34,2013-11-03 06:51:00,
2013-11-03 01:56:00,41.0,32.0,29.98,ESE,103,3.0,3.0,70,0.00,OVC,OVC,0.00,WeatherDisplay:10.34,2013-11-03 06:56:00,
2013-11-03 02:01:00,40.8,32.1,29.98,ESE,116,4.0,6.0,71,0.00,OVC,OVC,0.00,WeatherDisplay:10.34,2013-11-03 07:01:00,
2013-11-03 02:06:00,40.8,32.1,29.98,ESE,116,0.0,3.0,71,0.00,OVC,OVC,0.00,WeatherDisplay:10.34,2013-11-03 07:06:00,
2013-11-03 02:11:00,40.8,32.1,29.98,ESE,115,0.0,3.0,71,0.00,OVC,OVC,0.00,WeatherDisplay:10.34,2013-11-03 07:11:00,
2013-11-03 02:16:00,40.6,32.0,30.01,ESE,115,3.0,3.0,71,0.00,OVC,OVC,0.00,WeatherDisplay:10.34,2013-11-03 07:16:00,
2013-11-03 02:21:00,40.6,31.6,30.01,ESE,115,0.0,3.0,70,0.00,OVC,OVC,0.00,WeatherDisplay:10.34,2013-11-03 07:21:00,
2013-11-03 02:26:00,40.6,31.3,30.01,ESE,115,0.0,3.0,69,0.00,OVC,OVC,0.00,WeatherDisplay:10.34,2013-11-03 07:26:00,
2013-11-03 02:31:00,40.5,31.1,30.01,ESE,114,0.0,3.0,69,0.00,OVC,OVC,0.00,WeatherDisplay:10.34,2013-11-03 07:31:00,
2013-11-03 02:36:00,40.5,30.7,30.01,ESE,114,0.0,0.0,68,0.00,OVC,OVC,0.00,WeatherDisplay:10.34,2013-11-03 07:36:00,
2013-11-03 02:41:00,40.3,30.9,30.01,ESE,114,3.0,5.0,69,0.00,OVC,OVC,0.00,WeatherDisplay:10.34,2013-11-03 07:41:00,
2013-11-03 02:46:00,40.3,30.6,30.01,ESE,114,0.0,3.0,68,0.00,OVC,OVC,0.00,WeatherDisplay:10.34,2013-11-03 07:46:00,
2013-11-03 02:51:00,39.9,30.6,30.01,ESE,114,3.0,3.0,69,0.00,OVC,OVC,0.00,WeatherDisplay:10.34,2013-11-03 07:51:00,
2013-11-03 02:56:00,39.9,30.6,30.01,ESE,114,0.0,0.0,69,0.00,OVC,OVC,0.00,WeatherDisplay:10.34,2013-11-03 07:56:00,
2013-11-03 03:01:00,39.9,30.6,30.01,ESE,113,0.0,3.0,69,0.00,OVC,OVC,0.00,WeatherDisplay:10.34,2013-11-03 08:01:00,
2013-11-03 03:06:00,40.1,30.7,30.01,ESE,113,3.0,3.0,69,0.00,OVC,OVC,0.00,WeatherDisplay:10.34,2013-11-03 08:06:00,
2013-11-03 03:11:00,40.1,30.4,30.01,ESE,113,3.0,5.0,68,0.00,OVC,OVC,0.00,WeatherDisplay:10.34,2013-11-03 08:11:00,
2013-11-03 03:16:00,39.9,29.5,30.01,ENE,77,3.0,3.0,66,0.00,OVC,OVC,0.00,WeatherDisplay:10.34,2013-11-03 08:16:00,
2013-11-03 03:21:00,39.9,29.5,30.01,ENE,77,0.0,3.0,66,0.00,OVC,OVC,0.00,WeatherDisplay:10.34,2013-11-03 08:21:00,
2013-11-03 03:26:00,39.7,28.5,30.01,NE,42,0.0,2.0,64,0.00,OVC,OVC,0.00,WeatherDisplay:10.34,2013-11-03 08:26:00,
2013-11-03 03:31:00,39.7,28.2,30.04,ENE,60,4.0,6.0,63,0.00,OVC,OVC,0.00,WeatherDisplay:10.34,2013-11-03 08:31:00,
2013-11-03 03:36:00,39.9,28.3,30.04,ENE,59,0.0,0.0,63,0.00,OVC,OVC,0.00,WeatherDisplay:10.34,2013-11-03 08:36:00,
2013-11-03 03:41:00,39.9,28.3,30.04,ENE,60,0.0,0.0,63,0.00,OVC,OVC,0.00,WeatherDisplay:10.34,2013-11-03 08:41:00,
2013-11-03 03:46:00,39.7,27.8,30.04,ENE,60,3.0,3.0,62,0.00,OVC,OVC,0.00,WeatherDisplay:10.34,2013-11-03 08:46:00,
2013-11-03 03:51:00,39.9,27.9,30.04,ENE,61,0.0,0.0,62,0.00,OVC,OVC,0.00,WeatherDisplay:10.34,2013-11-03 08:51:00,
2013-11-03 03:56:00,39.9,27.9,30.04,ENE,61,0.0,0.0,62,0.00,OVC,OVC,0.00,WeatherDisplay:10.34,2013-11-03 08:56:00,
2013-11-03 04:01:00,40.3,28.3,30.04,ENE,62,0.0,0.0,62,0.00,OVC,OVC,0.00,WeatherDisplay:10.34,2013-11-03 09:01:00,
2013-11-03 04:06:00,40.3,28.7,30.04,ENE,60,0.0,3.0,63,0.00,OVC,OVC,0.00,WeatherDisplay:10.34,2013-11-03 09:06:00,
2013-11-03 04:11:00,40.3,28.7,30.04,ENE,60,0.0,0.0,63,0.00,OVC,OVC,0.00,WeatherDisplay:10.34,2013-11-03 09:11:00,
2013-11-03 04:16:00,40.3,28.7,30.07,ENE,60,0.0,0.0,63,0.00,OVC,OVC,0.00,WeatherDisplay:10.34,2013-11-03 09:16:00,
2013-11-03 04:21:00,40.1,28.1,30.07,ENE,59,0.0,0.0,62,0.00,OVC,OVC,0.00,WeatherDisplay:10.34,2013-11-03 09:21:00,
2013-11-03 04:26:00,39.9,27.9,30.07,ENE,60,0.0,0.0,62,0.00,OVC,OVC,0.00,WeatherDisplay:10.34,2013-11-03 09:26:00,
2013-11-03 04:31:00,39.9,27.9,30.07,ENE,60,0.0,2.0,62,0.00,OVC,OVC,0.00,WeatherDisplay:10.34,2013-11-03 09:31:00,
2013-11-03 04:36:00,39.9,27.9,30.07,ENE,60,0.0,3.0,62,0.00,OVC,OVC,0.00,WeatherDisplay:10.34,2013-11-03 09:36:00,
2013-11-03 04:41:00,39.7,27.8,30.07,ENE,61,0.0,2.0,62,0.00,OVC,OVC,0.00,WeatherDisplay:10.34,2013-11-03 09:41:00,
2013-11-03 04:46:00,39.7,27.4,30.07,ENE,61,0.0,0.0,61,0.00,OVC,OVC,0.00,WeatherDisplay:10.34,2013-11-03 09:46:00,
2013-11-03 04:51:00,39.7,27.0,30.07,ENE,61,0.0,0.0,60,0.00,OVC,OVC,0.00,WeatherDisplay:10.34,2013-11-03 09:51:00,
2013-11-03 04:56:00,39.6,25.6,30.09,ENE,65,4.0,6.0,57,0.00,OVC,OVC,0.00,WeatherDisplay:10.34,2013-11-03 09:56:00,
2013-11-03 05:01:00,39.4,25.0,30.12,ENE,63,3.0,5.0,56,0.00,OVC,OVC,0.00,WeatherDisplay:10.34,2013-11-03 10:01:00,
2013-11-03 05:06:00,39.4,25.0,30.12,ENE,62,4.0,5.0,56,0.00,OVC,OVC,0.00,WeatherDisplay:10.34,2013-11-03 10:06:00,
2013-11-03 05:11:00,39.6,25.1,30.12,ENE,59,3.0,5.0,56,0.00,OVC,OVC,0.00,WeatherDisplay:10.34,2013-11-03 10:11:00,
2013-11-03 05:16:00,39.6,24.7,30.12,ENE,59,0.0,0.0,55,0.00,OVC,OVC,0.00,WeatherDisplay:10.34,2013-11-03 10:16:00,
2013-11-03 05:21:00,39.2,23.5,30.12,ENE,65,0.0,5.0,53,0.00,OVC,OVC,0.00,WeatherDisplay:10.34,2013-11-03 10:21:00,
2013-11-03 05:26:00,39.0,23.3,30.12,ENE,65,3.0,3.0,53,0.00,OVC,OVC,0.00,WeatherDisplay:10.34,2013-11-03 10:26:00,
2013-11-03 05:31:00,39.2,23.5,30.12,East,88,0.0,3.0,53,0.00,OVC,OVC,0.00,WeatherDisplay:10.34,2013-11-03 10:31:00,
2013-11-03 05:36:00,38.8,22.7,30.12,East,83,0.0,0.0,52,0.00,OVC,OVC,0.00,WeatherDisplay:10.34,2013-11-03 10:36:00,
2013-11-03 05:41:00,38.8,22.7,30.12,East,83,3.0,3.0,52,0.00,OVC,OVC,0.00,WeatherDisplay:10.34,2013-11-03 10:41:00,
2013-11-03 05:46:00,38.8,22.7,30.12,East,83,0.0,0.0,52,0.00,OVC,OVC,0.00,WeatherDisplay:10.34,2013-11-03 10:46:00,
2013-11-03 05:51:00,38.7,23.0,30.12,East,83,0.0,2.0,53,0.00,OVC,OVC,0.00,WeatherDisplay:10.34,2013-11-03 10:51:00,
2013-11-03 05:56:00,38.7,23.0,30.12,East,88,0.0,0.0,53,0.00,OVC,OVC,0.00,WeatherDisplay:10.34,2013-11-03 10:56:00,
2013-11-03 06:01:00,38.8,23.6,30.15,East,88,0.0,0.0,54,0.00,OVC,OVC,0.00,WeatherDisplay:10.34,2013-11-03 11:01:00,
2013-11-03 06:06:00,38.8,23.6,30.15,East,87,3.0,3.0,54,0.00,OVC,OVC,0.00,WeatherDisplay:10.34,2013-11-03 11:06:00,
2013-11-03 06:11:00,38.7,23.0,30.15,East,79,3.0,3.0,53,0.00,OVC,OVC,0.00,WeatherDisplay:10.34,2013-11-03 11:11:00,
2013-11-03 06:16:00,38.7,23.0,30.15,East,79,0.0,0.0,53,0.00,OVC,OVC,0.00,WeatherDisplay:10.34,2013-11-03 11:16:00,
2013-11-03 06:21:00,38.5,22.8,30.15,East,79,0.0,0.0,53,0.00,OVC,OVC,0.00,WeatherDisplay:10.34,2013-11-03 11:21:00,
2013-11-03 06:26:00,38.5,22.8,30.15,East,80,0.0,0.0,53,0.00,OVC,OVC,0.00,WeatherDisplay:10.34,2013-11-03 11:26:00,
2013-11-03 06:31:00,38.5,22.8,30.15,East,80,0.0,0.0,53,0.00,OVC,OVC,0.00,WeatherDisplay:10.34,2013-11-03 11:31:00,
2013-11-03 06:36:00,38.3,23.1,30.15,East,80,0.0,0.0,54,0.00,OVC,OVC,0.00,WeatherDisplay:10.34,2013-11-03 11:36:00,
2013-11-03 06:41:00,38.5,23.3,30.15,East,80,0.0,3.0,54,0.00,OVC,OVC,0.00,WeatherDisplay:10.34,2013-11-03 11:41:00,
2013-11-03 06:46:00,38.5,23.7,30.15,East,80,0.0,0.0,55,0.00,OVC,OVC,0.00,WeatherDisplay:10.34,2013-11-03 11:46:00,
2013-11-03 06:51:00,38.5,23.7,30.15,East,80,0.0,0.0,55,0.00,OVC,OVC,0.00,WeatherDisplay:10.34,2013-11-03 11:51:00,
2013-11-03 06:56:00,38.5,23.3,30.15,East,80,0.0,0.0,54,0.00,OVC,OVC,0.00,WeatherDisplay:10.34,2013-11-03 11:56:00,
2013-11-03 07:01:00,38.7,23.4,30.18,East,80,0.0,0.0,54,0.00,OVC,OVC,0.00,WeatherDisplay:10.34,2013-11-03 12:01:00,
2013-11-03 07:06:00,38.1,22.9,30.18,East,80,0.0,0.0,54,0.00,OVC,OVC,0.00,WeatherDisplay:10.34,2013-11-03 12:06:00,
2013-11-03 07:11:00,37.9,22.8,30.18,East,80,3.0,3.0,54,0.00,OVC,OVC,0.00,WeatherDisplay:10.34,2013-11-03 12:11:00,
2013-11-03 07:16:00,37.9,22.8,30.18,East,80,3.0,5.0,54,0.00,OVC,OVC,0.00,WeatherDisplay:10.34,2013-11-03 12:16:00,
2013-11-03 07:21:00,37.9,22.8,30.18,ENE,70,3.0,3.0,54,0.00,OVC,OVC,0.00,WeatherDisplay:10.34,2013-11-03 12:21:00,
2013-11-03 07:26:00,38.1,22.9,30.18,ENE,70,0.0,0.0,54,0.00,OVC,OVC,0.00,WeatherDisplay:10.34,2013-11-03 12:26:00,
2013-11-03 07:31:00,38.3,23.5,30.18,North,0,0.0,5.0,55,0.00,OVC,OVC,0.00,WeatherDisplay:10.34,2013-11-03 12:31:00,
2013-11-03 07:36:00,38.1,22.9,30.18,NE,36,4.0,5.0,54,0.00,OVC,OVC,0.00,WeatherDisplay:10.34,2013-11-03 12:36:00,
2013-11-03 07:41:00,38.3,23.1,30.18,NE,39,3.0,3.0,54,0.00,OVC,OVC,0.00,WeatherDisplay:10.34,2013-11-03 12:41:00,
2013-11-03 07:46:00,38.1,22.9,30.21,ESE,106,3.0,3.0,54,0.00,OVC,OVC,0.00,WeatherDisplay:10.34,2013-11-03 12:46:00,
2013-11-03 07:51:00,38.1,22.9,30.22,East,98,3.0,3.0,54,0.00,OVC,OVC,0.00,WeatherDisplay:10.34,2013-11-03 12:51:00,
2013-11-03 07:56:00,38.1,22.9,30.21,East,97,0.0,3.0,54,0.00,OVC,OVC,0.00,WeatherDisplay:10.34,2013-11-03 12:56:00,
2013-11-03 08:01:00,38.1,22.9,30.21,East,93,4.0,5.0,54,0.00,OVC,OVC,0.00,WeatherDisplay:10.34,2013-11-03 13:01:00,
2013-11-03 08:06:00,37.8,22.1,30.22,East,90,0.0,3.0,53,0.00,OVC,OVC,0.00,WeatherDisplay:10.34,2013-11-03 13:06:00,
2013-11-03 08:11:00,37.6,21.5,30.22,ENE,74,3.0,3.0,52,0.00,OVC,OVC,0.00,WeatherDisplay:10.34,2013-11-03 13:11:00,
2013-11-03 08:16:00,37.6,21.5,30.22,ESE,106,3.0,6.0,52,0.00,OVC,OVC,0.00,WeatherDisplay:10.34,2013-11-03 13:16:00,
2013-11-03 08:21:00,37.6,21.1,30.22,NE,35,4.0,6.0,51,0.00,OVC,OVC,0.00,WeatherDisplay:10.34,2013-11-03 13:21:00,
2013-11-03 08:26:00,37.8,21.7,30.22,NNE,31,0.0,3.0,52,0.00,OVC,OVC,0.00,WeatherDisplay:10.34,2013-11-03 13:26:00,
2013-11-03 08:31:00,37.8,21.7,30.25,NNE,31,0.0,3.0,52,0.00,OVC,OVC,0.00,WeatherDisplay:10.34,2013-11-03 13:31:00,
2013-11-03 08:36:00,37.8,21.2,30.25,ESE,123,4.0,6.0,51,0.00,OVC,OVC,0.00,WeatherDisplay:10.34,2013-11-03 13:36:00,
2013-11-03 08:41:00,37.6,21.1,30.25,East,89,4.0,6.0,51,0.00,OVC,OVC,0.00,WeatherDisplay:10.34,2013-11-03 13:41:00,
2013-11-03 08:46:00,37.4,20.9,30.25,East,84,4.0,5.0,51,0.00,OVC,OVC,0.00,WeatherDisplay:10.34,2013-11-03 13:46:00,
2013-11-03 08:51:00,37.4,20.4,30.25,ESE,111,4.0,6.0,50,0.00,OVC,OVC,0.00,WeatherDisplay:10.34,2013-11-03 13:51:00,
2013-11-03 08:56:00,37.4,20.4,30.25,ENE,78,3.0,3.0,50,0.00,OVC,OVC,0.00,WeatherDisplay:10.34,2013-11-03 13:56:00,
2013-11-03 09:01:00,37.4,20.4,30.25,ENE,75,3.0,3.0,50,0.00,OVC,OVC,0.00,WeatherDisplay:10.34,2013-11-03 14:01:00,
2013-11-03 09:06:00,37.6,20.6,30.25,NNW,346,3.0,5.0,50,0.00,OVC,OVC,0.00,WeatherDisplay:10.34,2013-11-03 14:06:00,
2013-11-03 09:11:00,37.9,20.9,30.25,NNE,25,4.0,6.0,50,0.00,OVC,OVC,0.00,WeatherDisplay:10.34,2013-11-03 14:11:00,
2013-11-03 09:16:00,37.9,20.5,30.25,East,97,4.0,6.0,49,0.00,OVC,OVC,0.00,WeatherDisplay:10.34,2013-11-03 14:16:00,
2013-11-03 09:21:00,37.8,20.3,30.25,ENE,78,3.0,3.0,49,0.00,OVC,OVC,0.00,WeatherDisplay:10.34,2013-11-03 14:21:00,
2013-11-03 09:26:00,37.9,20.5,30.25,NNE,24,3.0,5.0,49,0.00,OVC,OVC,0.00,WeatherDisplay:10.34,2013-11-03 14:26:00,
2013-11-03 09:31:00,38.1,19.6,30.25,East,94,0.0,5.0,47,0.00,OVC,OVC,0.00,WeatherDisplay:10.34,2013-11-03 14:31:00,
2013-11-03 09:36:00,37.9,19.5,30.25,East,96,0.0,3.0,47,0.00,OVC,OVC,0.00,WeatherDisplay:10.34,2013-11-03 14:36:00,
2013-11-03 09:41:00,37.9,19.5,30.25,ESE,106,4.0,5.0,47,0.00,OVC,OVC,0.00,WeatherDisplay:10.34,2013-11-03 14:41:00,
2013-11-03 09:46:00,38.1,19.6,30.28,ESE,107,4.0,5.0,47,0.00,OVC,OVC,0.00,WeatherDisplay:10.34,2013-11-03 14:46:00,
2013-11-03 09:51:00,38.1,19.1,30.28,NE,48,0.0,0.0,46,0.00,OVC,OVC,0.00,WeatherDisplay:10.34,2013-11-03 14:51:00,
2013-11-03 09:56:00,38.3,18.8,30.28,NE,44,0.0,2.0,45,0.00,OVC,OVC,0.00,WeatherDisplay:10.34,2013-11-03 14:56:00,
2013-11-03 10:01:00,38.5,19.5,30.28,NE,44,3.0,3.0,46,0.00,OVC,OVC,0.00,WeatherDisplay:10.34,2013-11-03 15:01:00,
2013-11-03 10:06:00,38.7,19.1,30.28,ENE,67,3.0,5.0,45,0.00,OVC,OVC,0.00,WeatherDisplay:10.34,2013-11-03 15:06:00,
2013-11-03 10:11:00,38.7,18.1,30.28,ENE,65,3.0,5.0,43,0.00,OVC,OVC,0.00,WeatherDisplay:10.34,2013-11-03 15:11:00,
2013-11-03 10:16:00,38.7,18.1,30.28,ENE,65,0.0,0.0,43,0.00,OVC,OVC,0.00,WeatherDisplay:10.34,2013-11-03 15:16:00,
2013-11-03 10:21:00,38.8,17.7,30.28,NNE,25,5.0,7.0,42,0.00,OVC,OVC,0.00,WeatherDisplay:10.34,2013-11-03 15:21:00,
2013-11-03 10:26:00,38.8,17.1,30.28,NNE,14,4.0,5.0,41,0.00,OVC,OVC,0.00,WeatherDisplay:10.34,2013-11-03 15:26:00,
2013-11-03 10:31:00,38.8,17.1,30.28,NE,46,3.0,5.0,41,0.00,OVC,OVC,0.00,WeatherDisplay:10.34,2013-11-03 15:31:00,
2013-11-03 10:36:00,38.5,16.2,30.28,NE,46,0.0,3.0,40,0.00,OVC,OVC,0.00,WeatherDisplay:10.34,2013-11-03 15:36:00,
2013-11-03 10:41:00,38.7,17.0,30.28,NNE,18,5.0,8.0,41,0.00,OVC,OVC,0.00,WeatherDisplay:10.34,2013-11-03 15:41:00,
2013-11-03 10:47:00,38.8,17.1,30.28,NE,39,3.0,3.0,41,0.00,OVC,OVC,0.00,WeatherDisplay:10.34,2013-11-03 15:47:00,
2013-11-03 10:52:00,39.2,17.4,30.28,NNE,30,5.0,7.0,41,0.00,OVC,OVC,0.00,WeatherDisplay:10.34,2013-11-03 15:52:00,
2013-11-03 10:57:00,39.6,17.8,30.28,NNE,27,3.0,5.0,41,0.00,OVC,OVC,0.00,WeatherDisplay:10.34,2013-11-03 15:57:00,
2013-11-03 11:02:00,39.7,17.4,30.28,North,1,3.0,3.0,40,0.00,OVC,OVC,0.00,WeatherDisplay:10.34,2013-11-03 16:02:00,
2013-11-03 11:07:00,39.7,17.4,30.28,East,84,4.0,5.0,40,0.00,OVC,OVC,0.00,WeatherDisplay:10.34,2013-11-03 16:07:00,
2013-11-03 11:12:00,39.9,17.5,30.28,ESE,103,3.0,3.0,40,0.00,OVC,OVC,0.00,WeatherDisplay:10.34,2013-11-03 16:12:00,
2013-11-03 11:17:00,40.3,17.8,30.28,East,90,3.0,3.0,40,0.00,OVC,OVC,0.00,WeatherDisplay:10.34,2013-11-03 16:17:00,
2013-11-03 11:22:00,40.5,18.0,30.28,East,90,3.0,5.0,40,0.00,OVC,OVC,0.00,WeatherDisplay:10.34,2013-11-03 16:22:00,
2013-11-03 11:27:00,40.6,17.6,30.28,SE,142,3.0,6.0,39,0.00,OVC,OVC,0.00,WeatherDisplay:10.34,2013-11-03 16:27:00,
2013-11-03 11:32:00,40.6,17.6,30.28,NE,37,4.0,6.0,39,0.00,OVC,OVC,0.00,WeatherDisplay:10.34,2013-11-03 16:32:00,
2013-11-03 11:37:00,40.6,17.6,30.28,NNW,333,0.0,3.0,39,0.00,OVC,OVC,0.00,WeatherDisplay:10.34,2013-11-03 16:37:00,
2013-11-03 11:42:00,40.8,17.7,30.28,SSW,210,0.0,2.0,39,0.00,OVC,OVC,0.00,WeatherDisplay:10.34,2013-11-03 16:42:00,
2013-11-03 11:47:00,41.2,18.1,30.28,East,83,4.0,4.0,39,0.00,OVC,OVC,0.00,WeatherDisplay:10.34,2013-11-03 16:47:00,
2013-11-03 11:52:00,41.4,18.2,30.28,ENE,75,3.0,3.0,39,0.00,OVC,OVC,0.00,WeatherDisplay:10.34,2013-11-03 16:52:00,
2013-11-03 11:57:00,41.0,17.3,30.28,ENE,63,3.0,5.0,38,0.00,OVC,OVC,0.00,WeatherDisplay:10.34,2013-11-03 16:57:00,
2013-11-03 12:02:00,40.5,16.8,30.28,NE,36,3.0,6.0,38,0.00,OVC,OVC,0.00,WeatherDisplay:10.34,2013-11-03 17:02:00,
2013-11-03 12:07:00,40.3,17.3,30.28,NNE,32,4.0,7.0,39,0.00,CLR,CLR,0.00,WeatherDisplay:10.34,2013-11-03 17:07:00,
2013-11-03 12:12:00,40.3,16.7,30.28,North,9,0.0,0.0,38,0.00,CLR,CLR,0.00,WeatherDisplay:10.34,2013-11-03 17:12:00,
2013-11-03 12:17:00,40.1,17.1,30.28,North,351,3.0,5.0,39,0.00,CLR,CLR,0.00,WeatherDisplay:10.34,2013-11-03 17:17:00,
2013-11-03 12:22:00,40.3,16.7,30.28,North,351,0.0,0.0,38,0.00,CLR,CLR,0.00,WeatherDisplay:10.34,2013-11-03 17:22:00,
2013-11-03 12:27:00,40.3,16.7,30.28,NNW,333,5.0,7.0,38,0.00,CLR,CLR,0.00,WeatherDisplay:10.34,2013-11-03 17:27:00,
2013-11-03 12:32:00,40.1,17.1,30.28,NE,40,0.0,3.0,39,0.00,CLR,CLR,0.00,WeatherDisplay:10.34,2013-11-03 17:32:00,
2013-11-03 12:37:00,39.9,16.3,30.28,NE,38,0.0,3.0,38,0.00,CLR,CLR,0.00,WeatherDisplay:10.34,2013-11-03 17:37:00,
2013-11-03 12:42:00,39.7,15.6,30.28,NE,38,0.0,3.0,37,0.00,CLR,CLR,0.00,WeatherDisplay:10.34,2013-11-03 17:42:00,
2013-11-03 12:47:00,39.9,15.1,30.28,NNW,335,0.0,0.0,36,0.00,CLR,CLR,0.00,WeatherDisplay:10.34,2013-11-03 17:47:00,
2013-11-03 12:52:00,40.6,15.7,30.28,NNW,335,3.0,3.0,36,0.00,CLR,CLR,0.00,WeatherDisplay:10.34,2013-11-03 17:52:00,
2013-11-03 12:57:00,40.8,15.9,30.28,NNW,334,4.0,5.0,36,0.00,CLR,CLR,0.00,WeatherDisplay:10.34,2013-11-03 17:57:00,
2013-11-03 13:02:00,40.6,15.1,30.28,WSW,241,3.0,3.0,35,0.00,CLR,CLR,0.00,WeatherDisplay:10.34,2013-11-03 18:02:00,
2013-11-03 13:07:00,40.6,14.4,30.28,SW,234,3.0,3.0,34,0.00,CLR,CLR,0.00,WeatherDisplay:10.34,2013-11-03 18:07:00,
2013-11-03 13:12:00,41.0,14.7,30.28,NNE,25,0.0,2.0,34,0.00,CLR,CLR,0.00,WeatherDisplay:10.34,2013-11-03 18:12:00,
2013-11-03 13:17:00,41.4,13.7,30.28,North,2,4.0,6.0,32,0.00,CLR,CLR,0.00,WeatherDisplay:10.34,2013-11-03 18:17:00,
2013-11-03 13:22:00,41.4,12.9,30.28,North,3,0.0,2.0,31,0.00,CLR,CLR,0.00,WeatherDisplay:10.34,2013-11-03 18:22:00,
2013-11-03 13:27:00,41.4,12.2,30.28,ENE,70,4.0,5.0,30,0.00,CLR,CLR,0.00,WeatherDisplay:10.34,2013-11-03 18:27:00,
2013-11-03 13:32:00,41.4,12.2,30.28,ENE,78,6.0,7.0,30,0.00,CLR,CLR,0.00,WeatherDisplay:10.34,2013-11-03 18:32:00,
2013-11-03 13:37:00,41.2,11.3,30.28,North,351,5.0,8.0,29,0.00,CLR,CLR,0.00,WeatherDisplay:10.34,2013-11-03 18:37:00,
2013-11-03 13:42:00,41.0,11.1,30.28,NE,42,3.0,6.0,29,0.00,CLR,CLR,0.00,WeatherDisplay:10.34,2013-11-03 18:42:00,
2013-11-03 13:47:00,41.0,11.9,30.31,North,3,0.0,3.0,30,0.00,CLR,CLR,0.00,WeatherDisplay:10.34,2013-11-03 18:47:00,
2013-11-03 13:52:00,41.2,11.3,30.31,NNW,331,0.0,3.0,29,0.00,CLR,CLR,0.00,WeatherDisplay:10.34,2013-11-03 18:52:00,
2013-11-03 13:57:00,41.2,12.0,30.31,NW,320,5.0,7.0,30,0.00,CLR,CLR,0.00,WeatherDisplay:10.34,2013-11-03 18:57:00,
2013-11-03 14:02:00,41.0,11.1,30.31,ENE,68,4.0,6.0,29,0.00,CLR,CLR,0.00,WeatherDisplay:10.34,2013-11-03 19:02:00,
2013-11-03 14:07:00,40.8,11.0,30.32,NNE,23,0.0,7.0,29,0.00,CLR,CLR,0.00,WeatherDisplay:10.34,2013-11-03 19:07:00,
2013-11-03 14:12:00,40.8,11.0,30.32,ENE,75,3.0,7.0,29,0.00,CLR,CLR,0.00,WeatherDisplay:10.34,2013-11-03 19:12:00,
2013-11-03 14:17:00,40.6,10.8,30.32,NE,56,4.0,6.0,29,0.00,CLR,CLR,0.00,WeatherDisplay:10.34,2013-11-03 19:17:00,
2013-11-03 14:22:00,40.5,10.7,30.32,NNE,30,4.0,7.0,29,0.00,CLR,CLR,0.00,WeatherDisplay:10.34,2013-11-03 19:22:00,
2013-11-03 14:27:00,40.1,10.3,30.32,East,89,4.0,7.0,29,0.00,CLR,CLR,0.00,WeatherDisplay:10.34,2013-11-03 19:27:00,
2013-11-03 14:32:00,39.9,10.2,30.32,East,95,3.0,3.0,29,0.00,CLR,CLR,0.00,WeatherDisplay:10.34,2013-11-03 19:32:00,
2013-11-03 14:37:00,39.9,10.2,30.32,NNE,21,5.0,7.0,29,0.00,CLR,CLR,0.00,WeatherDisplay:10.34,2013-11-03 19:37:00,
2013-11-03 14:42:00,39.9,10.2,30.32,ESE,104,4.0,7.0,29,0.00,CLR,CLR,0.00,WeatherDisplay:10.34,2013-11-03 19:42:00,
2013-11-03 14:47:00,39.7,10.0,30.35,NW,326,4.0,7.0,29,0.00,CLR,CLR,0.00,WeatherDisplay:10.34,2013-11-03 19:47:00,
2013-11-03 14:52:00,39.7,10.0,30.35,NNE,19,5.0,7.0,29,0.00,CLR,CLR,0.00,WeatherDisplay:10.34,2013-11-03 19:52:00,
2013-11-03 14:57:00,39.7,10.8,30.35,NNE,33,6.0,9.0,30,0.00,CLR,CLR,0.00,WeatherDisplay:10.34,2013-11-03 19:57:00,
2013-11-03 15:02:00,39.6,10.6,30.35,NNE,22,0.0,6.0,30,0.00,CLR,CLR,0.00,WeatherDisplay:10.34,2013-11-03 20:02:00,
2013-11-03 15:07:00,39.4,10.5,30.35,North,4,3.0,6.0,30,0.00,CLR,CLR,0.00,WeatherDisplay:10.34,2013-11-03 20:07:00,
2013-11-03 15:12:00,39.4,10.5,30.35,East,82,3.0,5.0,30,0.00,CLR,CLR,0.00,WeatherDisplay:10.34,2013-11-03 20:12:00,
2013-11-03 15:17:00,39.2,10.3,30.35,ESE,108,3.0,3.0,30,0.00,CLR,CLR,0.00,WeatherDisplay:10.34,2013-11-03 20:17:00,
2013-11-03 15:22:00,38.8,10.0,30.35,NNE,22,3.0,3.0,30,0.00,CLR,CLR,0.00,WeatherDisplay:10.34,2013-11-03 20:22:00,
2013-11-03 15:27:00,38.8,10.0,30.35,NNE,22,0.0,5.0,30,0.00,CLR,CLR,0.00,WeatherDisplay:10.34,2013-11-03 20:27:00,
2013-11-03 15:32:00,38.7,9.8,30.35,NNE,18,5.0,7.0,30,0.00,CLR,CLR,0.00,WeatherDisplay:10.34,2013-11-03 20:32:00,
2013-11-03 15:37:00,38.5,9.7,30.35,NNE,19,3.0,3.0,30,0.00,CLR,CLR,0.00,WeatherDisplay:10.34,2013-11-03 20:37:00,
2013-11-03 15:42:00,38.5,9.7,30.35,NNE,20,0.0,2.0,30,0.00,CLR,CLR,0.00,WeatherDisplay:10.34,2013-11-03 20:42:00,
2013-11-03 15:47:00,38.1,9.4,30.35,North,351,4.0,6.0,30,0.00,CLR,CLR,0.00,WeatherDisplay:10.34,2013-11-03 20:47:00,
2013-11-03 15:52:00,38.1,9.4,30.35,North,6,0.0,0.0,30,0.00,CLR,CLR,0.00,WeatherDisplay:10.34,2013-11-03 20:52:00,
2013-11-03 15:57:00,38.1,9.4,30.35,NE,37,4.0,7.0,30,0.00,CLR,CLR,0.00,WeatherDisplay:10.34,2013-11-03 20:57:00,
2013-11-03 16:02:00,37.9,9.2,30.38,NE,35,0.0,0.0,30,0.00,CLR,CLR,0.00,WeatherDisplay:10.34,2013-11-03 21:02:00,
2013-11-03 16:07:00,37.6,8.9,30.38,NNW,346,4.0,7.0,30,0.00,CLR,CLR,0.00,WeatherDisplay:10.34,2013-11-03 21:07:00,
2013-11-03 16:12:00,37.2,8.6,30.38,NNE,17,3.0,6.0,30,0.00,CLR,CLR,0.00,WeatherDisplay:10.34,2013-11-03 21:12:00,
2013-11-03 16:17:00,37.2,8.6,30.38,NE,47,0.0,2.0,30,0.00,CLR,CLR,0.00,WeatherDisplay:10.34,2013-11-03 21:17:00,
2013-11-03 16:22:00,37.0,9.2,30.38,NE,36,0.0,0.0,31,0.00,CLR,CLR,0.00,WeatherDisplay:10.34,2013-11-03 21:22:00,
2013-11-03 16:27:00,37.0,9.2,30.38,NE,36,0.0,3.0,31,0.00,CLR,CLR,0.00,WeatherDisplay:10.34,2013-11-03 21:27:00,
2013-11-03 16:32:00,36.9,9.0,30.38,NE,48,3.0,3.0,31,0.00,CLR,CLR,0.00,WeatherDisplay:10.34,2013-11-03 21:32:00,
2013-11-03 16:37:00,36.7,8.8,30.38,North,351,4.0,6.0,31,0.00,CLR,CLR,0.00,WeatherDisplay:10.34,2013-11-03 21:37:00,
2013-11-03 16:42:00,36.7,8.8,30.38,North,351,0.0,3.0,31,0.00,CLR,CLR,0.00,WeatherDisplay:10.34,2013-11-03 21:42:00,
2013-11-03 16:48:00,36.3,8.5,30.41,NNW,341,3.0,6.0,31,0.00,CLR,CLR,0.00,WeatherDisplay:10.34,2013-11-03 21:48:00,
2013-11-03 16:53:00,36.1,8.4,30.42,North,351,0.0,6.0,31,0.00,CLR,CLR,0.00,WeatherDisplay:10.34,2013-11-03 21:53:00,
2013-11-03 16:58:00,36.0,8.2,30.42,NW,317,0.0,5.0,31,0.00,CLR,CLR,0.00,WeatherDisplay:10.34,2013-11-03 21:58:00,
2013-11-03 17:03:00,35.8,8.0,30.42,NW,319,3.0,5.0,31,0.00,CLR,CLR,0.00,WeatherDisplay:10.34,2013-11-03 22:03:00,
2013-11-03 17:08:00,35.8,8.8,30.42,North,4,3.0,5.0,32,0.00,CLR,CLR,0.00,WeatherDisplay:10.34,2013-11-03 22:08:00,
2013-11-03 17:13:00,35.6,8.6,30.42,North,3,0.0,0.0,32,0.00,CLR,CLR,0.00,WeatherDisplay:10.34,2013-11-03 22:13:00,
2013-11-03 17:18:00,35.4,8.4,30.42,North,3,0.0,3.0,32,0.00,CLR,CLR,0.00,WeatherDisplay:10.34,2013-11-03 22:18:00,
2013-11-03 17:23:00,35.2,8.3,30.42,NNE,16,0.0,3.0,32,0.00,CLR,CLR,0.00,WeatherDisplay:10.34,2013-11-03 22:23:00,
2013-11-03 17:28:00,35.2,8.3,30.45,NNE,16,0.0,0.0,32,0.00,CLR,CLR,0.00,WeatherDisplay:10.34,2013-11-03 22:28:00,
2013-11-03 17:33:00,35.1,8.1,30.45,NNE,21,0.0,0.0,32,0.00,CLR,CLR,0.00,WeatherDisplay:10.34,2013-11-03 22:33:00,
2013-11-03 17:38:00,35.1,8.1,30.45,NNE,21,3.0,3.0,32,0.00,CLR,CLR,0.00,WeatherDisplay:10.34,2013-11-03 22:38:00,
2013-11-03 17:43:00,34.7,8.5,30.45,NE,41,0.0,3.0,33,0.00,CLR,CLR,0.00,WeatherDisplay:10.34,2013-11-03 22:43:00,
2013-11-03 17:48:00,34.5,7.6,30.45,NE,38,0.0,0.0,32,0.00,CLR,CLR,0.00,WeatherDisplay:10.34,2013-11-03 22:48:00,
2013-11-03 17:53:00,34.3,7.5,30.45,ESE,105,3.0,5.0,32,0.00,CLR,CLR,0.00,WeatherDisplay:10.34,2013-11-03 22:53:00,
2013-11-03 17:58:00,34.0,7.2,30.45,ENE,73,0.0,3.0,32,0.00,CLR,CLR,0.00,WeatherDisplay:10.34,2013-11-03 22:58:00,
2013-11-03 18:03:00,33.8,7.0,30.45,ENE,78,0.0,3.0,32,0.00,CLR,CLR,0.00,WeatherDisplay:10.34,2013-11-03 23:03:00,
2013-11-03 18:08:00,33.8,7.7,30.45,East,89,3.0,6.0,33,0.00,CLR,CLR,0.00,WeatherDisplay:10.34,2013-11-03 23:08:00,
2013-11-03 18:13:00,33.8,7.7,30.48,East,86,0.0,0.0,33,0.00,CLR,CLR,0.00,WeatherDisplay:10.34,2013-11-03 23:13:00,
2013-11-03 18:18:00,33.6,7.5,30.48,North,8,3.0,3.0,33,0.00,CLR,CLR,0.00,WeatherDisplay:10.34,2013-11-03 23:18:00,
2013-11-03 18:23:00,33.8,7.7,30.48,NNE,31,3.0,3.0,33,0.00,CLR,CLR,0.00,WeatherDisplay:10.34,2013-11-03 23:23:00,
2013-11-03 18:28:00,33.6,7.5,30.48,NE,34,0.0,0.0,33,0.00,CLR,CLR,0.00,WeatherDisplay:10.34,2013-11-03 23:28:00,
2013-11-03 18:33:00,33.4,7.4,30.48,NE,34,0.0,0.0,33,0.00,CLR,CLR,0.00,WeatherDisplay:10.34,2013-11-03 23:33:00,
2013-11-03 18:38:00,33.3,7.9,30.48,NNE,16,0.0,8.0,34,0.00,CLR,CLR,0.00,WeatherDisplay:10.34,2013-11-03 23:38:00,
2013-11-03 18:43:00,33.3,7.9,30.48,NE,51,4.0,7.0,34,0.00,CLR,CLR,0.00,WeatherDisplay:10.34,2013-11-03 23:43:00,
2013-11-03 18:48:00,33.4,8.0,30.48,NE,43,0.0,6.0,34,0.00,CLR,CLR,0.00,WeatherDisplay:10.34,2013-11-03 23:48:00,
2013-11-03 18:53:00,33.3,7.9,30.48,NNW,344,3.0,3.0,34,0.00,CLR,CLR,0.00,WeatherDisplay:10.34,2013-11-03 23:53:00,
2013-11-03 18:58:00,33.1,7.7,30.48,ENE,66,4.0,5.0,34,0.00,CLR,CLR,0.00,WeatherDisplay:10.34,2013-11-03 23:58:00,
2013-11-03 19:03:00,32.9,7.6,30.48,East,84,3.0,5.0,34,0.00,CLR,CLR,0.00,WeatherDisplay:10.34,2013-11-04 00:03:00,
2013-11-03 19:08:00,32.7,7.4,30.48,ENE,58,0.0,5.0,34,0.00,CLR,CLR,0.00,WeatherDisplay:10.34,2013-11-04 00:08:00,
2013-11-03 19:13:00,32.7,8.0,30.48,NE,56,3.0,5.0,35,0.00,CLR,CLR,0.00,WeatherDisplay:10.34,2013-11-04 00:13:00,
2013-11-03 19:18:00,32.7,8.0,30.48,NNE,18,4.0,6.0,35,0.00,CLR,CLR,0.00,WeatherDisplay:10.34,2013-11-04 00:18:00,
2013-11-03 19:23:00,32.7,8.7,30.48,NNE,26,4.0,7.0,36,0.00,CLR,CLR,0.00,WeatherDisplay:10.34,2013-11-04 00:23:00,
2013-11-03 19:28:00,32.5,7.9,30.51,NE,46,3.0,5.0,35,0.00,CLR,CLR,0.00,WeatherDisplay:10.34,2013-11-04 00:28:00,
2013-11-03 19:33:00,32.5,7.9,30.51,NNE,25,0.0,3.0,35,0.00,CLR,CLR,0.00,WeatherDisplay:10.34,2013-11-04 00:33:00,
2013-11-03 19:38:00,32.4,7.7,30.51,ENE,58,0.0,3.0,35,0.00,CLR,CLR,0.00,WeatherDisplay:10.34,2013-11-04 00:38:00,
2013-11-03 19:43:00,32.2,7.6,30.51,NE,53,0.0,2.0,35,0.00,CLR,CLR,0.00,WeatherDisplay:10.34,2013-11-04 00:43:00,
2013-11-03 19:48:00,32.4,7.7,30.51,NE,55,3.0,3.0,35,0.00,CLR,CLR,0.00,WeatherDisplay:10.34,2013-11-04 00:48:00,
2013-11-03 19:53:00,32.4,8.3,30.51,NE,55,0.0,2.0,36,0.00,CLR,CLR,0.00,WeatherDisplay:10.34,2013-11-04 00:53:00,
2013-11-03 19:58:00,32.4,8.3,30.51,NE,55,0.0,0.0,36,0.00,CLR,CLR,0.00,WeatherDisplay:10.34,2013-11-04 00:58:00,
2013-11-03 20:03:00,32.4,8.3,30.51,NE,51,0.0,2.0,36,0.00,CLR,CLR,0.00,WeatherDisplay:10.34,2013-11-04 01:03:00,
2013-11-03 20:08:00,32.4,8.3,30.51,NE,51,0.0,0.0,36,0.00,CLR,CLR,0.00,WeatherDisplay:10.34,2013-11-04 01:08:00,
2013-11-03 20:13:00,32.2,8.8,30.51,NE,50,0.0,0.0,37,0.00,CLR,CLR,0.00,WeatherDisplay:10.34,2013-11-04 01:13:00,
2013-11-03 20:18:00,31.8,8.5,30.52,NE,51,0.0,2.0,37,0.00,CLR,CLR,0.00,WeatherDisplay:10.34,2013-11-04 01:18:00,
2013-11-03 20:23:00,31.6,8.3,30.52,NE,53,0.0,0.0,37,0.00,CLR,CLR,0.00,WeatherDisplay:10.34,2013-11-04 01:23:00,
2013-11-03 20:28:00,31.6,8.9,30.55,NE,52,0.0,2.0,38,0.00,CLR,CLR,0.00,WeatherDisplay:10.34,2013-11-04 01:28:00,
2013-11-03 20:33:00,31.6,8.9,30.55,NE,51,0.0,0.0,38,0.00,CLR,CLR,0.00,WeatherDisplay:10.34,2013-11-04 01:33:00,
2013-11-03 20:38:00,31.8,9.6,30.55,NE,53,0.0,2.0,39,0.00,CLR,CLR,0.00,WeatherDisplay:10.34,2013-11-04 01:38:00,
2013-11-03 20:43:00,31.8,10.2,30.55,NE,53,0.0,2.0,40,0.00,CLR,CLR,0.00,WeatherDisplay:10.34,2013-11-04 01:43:00,
2013-11-03 20:48:00,32.0,10.4,30.55,NE,51,0.0,0.0,40,0.00,CLR,CLR,0.00,WeatherDisplay:10.34,2013-11-04 01:48:00,
2013-11-03 20:53:00,32.0,10.4,30.55,NNE,14,3.0,5.0,40,0.00,CLR,CLR,0.00,WeatherDisplay:10.34,2013-11-04 01:53:00,
2013-11-03 20:58:00,32.0,10.4,30.55,NNE,14,3.0,3.0,40,0.00,CLR,CLR,0.00,WeatherDisplay:10.34,2013-11-04 01:58:00,
2013-11-03 21:03:00,32.0,10.4,30.55,NNE,14,0.0,0.0,40,0.00,CLR,CLR,0.00,WeatherDisplay:10.34,2013-11-04 02:03:00,
2013-11-03 21:08:00,32.0,10.4,30.55,NNE,13,0.0,0.0,40,0.00,CLR,CLR,0.00,WeatherDisplay:10.34,2013-11-04 02:08:00,
2013-11-03 21:13:00,32.0,10.4,30.55,NNE,14,0.0,0.0,40,0.00,CLR,CLR,0.00,WeatherDisplay:10.34,2013-11-04 02:13:00,
2013-11-03 21:18:00,31.8,10.2,30.55,NNE,12,0.0,0.0,40,0.00,CLR,CLR,0.00,WeatherDisplay:10.34,2013-11-04 02:18:00,
2013-11-03 21:23:00,31.5,9.9,30.55,NNE,12,0.0,0.0,40,0.00,CLR,CLR,0.00,WeatherDisplay:10.34,2013-11-04 02:23:00,
2013-11-03 21:28:00,31.3,9.7,30.58,NNE,12,0.0,0.0,40,0.00,CLR,CLR,0.00,WeatherDisplay:10.34,2013-11-04 02:28:00,
2013-11-03 21:33:00,31.1,9.6,30.58,NNE,12,0.0,0.0,40,0.00,CLR,CLR,0.00,WeatherDisplay:10.34,2013-11-04 02:33:00,
2013-11-03 21:38:00,30.9,9.9,30.58,NNE,12,0.0,0.0,41,0.00,CLR,CLR,0.00,WeatherDisplay:10.34,2013-11-04 02:38:00,
2013-11-03 21:43:00,30.7,9.8,30.58,NNE,12,0.0,0.0,41,0.00,CLR,CLR,0.00,WeatherDisplay:10.34,2013-11-04 02:43:00,
2013-11-03 21:48:00,30.7,10.3,30.58,NNE,12,0.0,2.0,42,0.00,CLR,CLR,0.00,WeatherDisplay:10.34,2013-11-04 02:48:00,
2013-11-03 21:53:00,30.6,10.2,30.58,NNE,12,0.0,0.0,42,0.00,CLR,CLR,0.00,WeatherDisplay:10.34,2013-11-04 02:53:00,
2013-11-03 21:58:00,30.7,10.3,30.58,NNE,13,0.0,0.0,42,0.00,CLR,CLR,0.00,WeatherDisplay:10.34,2013-11-04 02:58:00,
2013-11-03 22:03:00,30.9,9.9,30.58,NNE,13,0.0,2.0,41,0.00,CLR,CLR,0.00,WeatherDisplay:10.34,2013-11-04 03:03:00,
2013-11-03 22:08:00,30.7,9.8,30.58,NNE,12,0.0,3.0,41,0.00,CLR,CLR,0.00,WeatherDisplay:10.34,2013-11-04 03:08:00,
2013-11-03 22:13:00,30.7,9.8,30.58,NNE,22,4.0,6.0,41,0.00,CLR,CLR,0.00,WeatherDisplay:10.34,2013-11-04 03:13:00,
2013-11-03 22:18:00,30.7,9.2,30.58,NNE,22,0.0,3.0,40,0.00,CLR,CLR,0.00,WeatherDisplay:10.34,2013-11-04 03:18:00,
2013-11-03 22:23:00,30.7,9.2,30.58,NNE,22,0.0,0.0,40,0.00,CLR,CLR,0.00,WeatherDisplay:10.34,2013-11-04 03:23:00,
2013-11-03 22:28:00,30.6,8.5,30.58,NNE,22,0.0,3.0,39,0.00,CLR,CLR,0.00,WeatherDisplay:10.34,2013-11-04 03:28:00,
2013-11-03 22:33:00,30.7,9.2,30.58,NNE,22,0.0,0.0,40,0.00,CLR,CLR,0.00,WeatherDisplay:10.34,2013-11-04 03:33:00,
2013-11-03 22:38:00,30.7,9.2,30.58,North,2,0.0,0.0,40,0.00,CLR,CLR,0.00,WeatherDisplay:10.34,2013-11-04 03:38:00,
2013-11-03 22:43:00,30.9,9.4,30.58,North,2,0.0,3.0,40,0.00,CLR,CLR,0.00,WeatherDisplay:10.34,2013-11-04 03:43:00,
2013-11-03 22:48:00,30.9,9.4,30.58,NNW,343,0.0,0.0,40,0.00,CLR,CLR,0.00,WeatherDisplay:10.34,2013-11-04 03:48:00,
2013-11-03 22:53:00,30.9,9.4,30.58,NNW,343,0.0,0.0,40,0.00,CLR,CLR,0.00,WeatherDisplay:10.34,2013-11-04 03:53:00,
2013-11-03 22:58:00,30.6,9.1,30.58,NNW,343,0.0,0.0,40,0.00,CLR,CLR,0.00,WeatherDisplay:10.34,2013-11-04 03:58:00,
2013-11-03 23:03:00,30.4,8.9,30.58,NNW,343,0.0,2.0,40,0.00,CLR,CLR,0.00,WeatherDisplay:10.34,2013-11-04 04:03:00,
2013-11-03 23:08:00,30.4,8.9,30.58,NNW,343,0.0,0.0,40,0.00,CLR,CLR,0.00,WeatherDisplay:10.34,2013-11-04 04:08:00,
2013-11-03 23:13:00,30.4,8.9,30.58,NNW,343,0.0,0.0,40,0.00,CLR,CLR,0.00,WeatherDisplay:10.34,2013-11-04 04:13:00,
2013-11-03 23:18:00,30.2,8.7,30.58,NNW,343,0.0,3.0,40,0.00,CLR,CLR,0.00,WeatherDisplay:10.34,2013-11-04 04:18:00,
2013-11-03 23:23:00,30.2,8.7,30.58,NNW,343,0.0,3.0,40,0.00,CLR,CLR,0.00,WeatherDisplay:10.34,2013-11-04 04:23:00,
2013-11-03 23:28:00,30.2,9.3,30.58,NNW,343,0.0,0.0,41,0.00,CLR,CLR,0.00,WeatherDisplay:10.34,2013-11-04 04:28:00,
2013-11-03 23:33:00,30.2,9.3,30.58,North,5,0.0,0.0,41,0.00,CLR,CLR,0.00,WeatherDisplay:10.34,2013-11-04 04:33:00,
2013-11-03 23:38:00,30.2,9.3,30.58,North,4,0.0,0.0,41,0.00,CLR,CLR,0.00,WeatherDisplay:10.34,2013-11-04 04:38:00,
2013-11-03 23:43:00,30.2,9.3,30.61,North,4,0.0,0.0,41,0.00,CLR,CLR,0.00,WeatherDisplay:10.34,2013-11-04 04:43:00,
2013-11-03 23:48:00,30.2,9.3,30.61,North,4,0.0,0.0,41,0.00,CLR,CLR,0.00,WeatherDisplay:10.34,2013-11-04 04:48:00,
2013-11-03 23:53:00,30.0,9.1,30.61,North,3,0.0,0.0,41,0.00,CLR,CLR,0.00,WeatherDisplay:10.34,2013-11-04 04:53:00,
2013-11-03 23:58:00,29.8,9.0,30.61,North,4,0.0,0.0,41,0.00,CLR,CLR,0.00,WeatherDisplay:10.34,2013-11-04 04:58:00,